createdAt,value
2018-04-25T00:00:17.106Z,0
2018-04-25T00:01:19.501Z,0
2018-04-25T00:02:21.880Z,0
2018-04-25T00:03:24.267Z,0
2018-04-25T00:04:26.644Z,0
2018-04-25T00:05:29.023Z,0
2018-04-25T00:06:31.701Z,0
2018-04-25T00:07:34.076Z,0
2018-04-25T00:08:36.757Z,0
2018-04-25T00:09:39.147Z,0
2018-04-25T00:10:41.523Z,0
2018-04-25T00:11:43.909Z,0
2018-04-25T00:12:46.289Z,0
2018-04-25T00:13:48.676Z,0
2018-04-25T00:14:51.063Z,0
2018-04-25T00:15:53.475Z,0
2018-04-25T00:16:56.173Z,0
2018-04-25T00:17:58.562Z,0
2018-04-25T00:19:00.938Z,0
2018-04-25T00:20:03.322Z,0
2018-04-25T00:21:05.701Z,0
2018-04-25T00:22:08.087Z,0
2018-04-25T00:23:10.477Z,0
2018-04-25T00:24:12.858Z,0
2018-04-25T00:25:15.625Z,0
2018-04-25T00:26:18.029Z,0
2018-04-25T00:27:20.703Z,0
2018-04-25T00:28:23.372Z,0
2018-04-25T00:29:25.762Z,0
2018-04-25T00:30:28.132Z,0
2018-04-25T00:31:30.517Z,0
2018-04-25T00:32:32.912Z,0
2018-04-25T00:33:35.971Z,0
2018-04-25T00:34:38.630Z,0
2018-04-25T00:35:41.007Z,0
2018-04-25T00:36:43.383Z,0
2018-04-25T00:37:45.778Z,0
2018-04-25T00:38:48.167Z,0
2018-04-25T00:39:50.544Z,0
2018-04-25T00:40:52.920Z,0
2018-04-25T00:41:55.317Z,0
2018-04-25T00:42:57.689Z,0
2018-04-25T00:44:00.090Z,0
2018-04-25T00:45:02.481Z,0
2018-04-25T00:46:04.861Z,0
2018-04-25T00:47:07.240Z,0
2018-04-25T00:48:09.633Z,0
2018-04-25T00:49:12.008Z,0
2018-04-25T00:50:14.395Z,0
2018-04-25T00:51:16.783Z,0
2018-04-25T00:52:19.162Z,0
2018-04-25T00:53:21.545Z,0
2018-04-25T00:54:23.938Z,0
2018-04-25T00:55:26.887Z,0
2018-04-25T00:56:29.345Z,0
2018-04-25T00:57:31.654Z,0
2018-04-25T00:58:34.328Z,0
2018-04-25T00:59:36.990Z,0
2018-04-25T01:00:39.376Z,0
2018-04-25T01:01:41.757Z,0
2018-04-25T01:02:44.417Z,0
2018-04-25T01:03:47.170Z,0
2018-04-25T01:04:50.130Z,0
2018-04-25T01:05:52.510Z,0
2018-04-25T01:06:54.889Z,0
2018-04-25T01:07:57.273Z,0
2018-04-25T01:08:59.937Z,0
2018-04-25T01:10:02.594Z,0
2018-04-25T01:11:04.985Z,0
2018-04-25T01:12:07.374Z,0
2018-04-25T01:13:09.736Z,0
2018-04-25T01:14:12.126Z,0
2018-04-25T01:15:14.807Z,0
2018-04-25T01:16:17.183Z,0
2018-04-25T01:17:19.573Z,0
2018-04-25T01:18:21.947Z,0
2018-04-25T01:19:24.323Z,0
2018-04-25T01:20:26.718Z,0
2018-04-25T01:21:29.098Z,0
2018-04-25T01:22:31.466Z,0
2018-04-25T01:23:33.848Z,0
2018-04-25T01:24:36.619Z,0
2018-04-25T01:25:38.998Z,0
2018-04-25T01:26:41.378Z,0
2018-04-25T01:27:43.762Z,0
2018-04-25T01:28:46.143Z,0
2018-04-25T01:29:48.540Z,0
2018-04-25T01:30:51.198Z,0
2018-04-25T01:31:53.584Z,0
2018-04-25T01:32:55.963Z,0
2018-04-25T01:33:58.626Z,0
2018-04-25T01:35:01.006Z,0
2018-04-25T01:36:04.064Z,0
2018-04-25T01:37:06.720Z,0
2018-04-25T01:38:09.483Z,0
2018-04-25T01:39:12.146Z,0
2018-04-25T01:40:14.517Z,0
2018-04-25T01:41:16.905Z,0
2018-04-25T01:42:19.288Z,0
2018-04-25T01:43:21.975Z,0
2018-04-25T01:44:24.367Z,0
2018-04-25T01:45:27.011Z,0
2018-04-25T01:46:29.774Z,0
2018-04-25T01:47:32.146Z,0
2018-04-25T01:48:34.912Z,0
2018-04-25T01:49:38.257Z,0
2018-04-25T01:50:40.630Z,0
2018-04-25T01:51:43.014Z,0
2018-04-25T01:52:45.398Z,0
2018-04-25T01:53:47.772Z,0
2018-04-25T01:54:50.168Z,0
2018-04-25T01:55:52.538Z,0
2018-04-25T01:56:54.919Z,0
2018-04-25T01:57:57.700Z,0
2018-04-25T01:59:00.357Z,0
2018-04-25T02:00:03.024Z,0
2018-04-25T02:01:05.806Z,0
2018-04-25T02:02:08.544Z,0
2018-04-25T02:03:10.939Z,0
2018-04-25T02:04:13.609Z,0
2018-04-25T02:05:15.972Z,0
2018-04-25T02:06:18.365Z,0
2018-04-25T02:07:21.307Z,0
2018-04-25T02:08:23.693Z,0
2018-04-25T02:09:26.078Z,0
2018-04-25T02:10:28.474Z,0
2018-04-25T02:11:31.229Z,0
2018-04-25T02:12:33.611Z,0
2018-04-25T02:13:36.000Z,0
2018-04-25T02:14:38.372Z,0
2018-04-25T02:15:40.754Z,0
2018-04-25T02:16:43.421Z,0
2018-04-25T02:17:45.784Z,0
2018-04-25T02:18:48.840Z,0
2018-04-25T02:19:51.500Z,0
2018-04-25T02:20:53.887Z,0
2018-04-25T02:21:56.548Z,0
2018-04-25T02:22:58.933Z,0
2018-04-25T02:24:01.316Z,0
2018-04-25T02:25:03.981Z,0
2018-04-25T02:26:06.363Z,0
2018-04-25T02:27:08.748Z,0
2018-04-25T02:28:11.117Z,0
2018-04-25T02:29:14.096Z,0
2018-04-25T02:30:16.474Z,0
2018-04-25T02:31:18.839Z,0
2018-04-25T02:32:21.221Z,0
2018-04-25T02:33:24.189Z,0
2018-04-25T02:34:26.564Z,0
2018-04-25T02:35:29.237Z,0
2018-04-25T02:36:31.614Z,0
2018-04-25T02:37:34.282Z,0
2018-04-25T02:38:36.955Z,0
2018-04-25T02:39:39.323Z,0
2018-04-25T02:40:42.867Z,0
2018-04-25T02:41:45.549Z,0
2018-04-25T02:42:47.937Z,0
2018-04-25T02:43:50.585Z,0
2018-04-25T02:44:53.633Z,0
2018-04-25T02:45:56.020Z,0
2018-04-25T02:46:58.793Z,0
2018-04-25T02:48:01.183Z,0
2018-04-25T02:49:03.847Z,0
2018-04-25T02:50:06.227Z,0
2018-04-25T02:51:08.623Z,0
2018-04-25T02:52:11.287Z,0
2018-04-25T02:53:13.661Z,0
2018-04-25T02:54:16.049Z,0
2018-04-25T02:55:19.008Z,0
2018-04-25T02:56:21.653Z,0
2018-04-25T02:57:24.982Z,0
2018-04-25T02:58:27.637Z,0
2018-04-25T02:59:30.683Z,0
2018-04-25T03:00:33.344Z,0
2018-04-25T03:01:35.721Z,0
2018-04-25T03:02:38.104Z,0
2018-04-25T03:03:40.489Z,0
2018-04-25T03:04:43.250Z,0
2018-04-25T03:05:45.635Z,0
2018-04-25T03:06:48.012Z,0
2018-04-25T03:07:50.401Z,0
2018-04-25T03:08:52.788Z,0
2018-04-25T03:09:55.163Z,0
2018-04-25T03:10:58.117Z,0
2018-04-25T03:12:00.783Z,0
2018-04-25T03:13:03.561Z,0
2018-04-25T03:14:06.607Z,0
2018-04-25T03:15:09.265Z,0
2018-04-25T03:16:11.631Z,0
2018-04-25T03:17:14.307Z,0
2018-04-25T03:18:16.685Z,0
2018-04-25T03:19:19.350Z,0
2018-04-25T03:20:21.726Z,0
2018-04-25T03:21:24.101Z,0
2018-04-25T03:22:26.769Z,0
2018-04-25T03:23:29.146Z,0
2018-04-25T03:24:31.527Z,0
2018-04-25T03:25:34.185Z,0
2018-04-25T03:26:36.573Z,4
2018-04-25T03:27:39.523Z,4
2018-04-25T03:28:41.898Z,4
2018-04-25T03:29:44.275Z,0
2018-04-25T03:30:46.938Z,4
2018-04-25T03:31:50.865Z,4
2018-04-25T03:32:53.247Z,4
2018-04-25T03:33:55.628Z,4
2018-04-25T03:34:58.017Z,4
2018-04-25T03:36:00.398Z,4
2018-04-25T03:37:02.785Z,8
2018-04-25T03:38:05.154Z,12
2018-04-25T03:39:07.536Z,16
2018-04-25T03:40:10.198Z,20
2018-04-25T03:41:12.852Z,28
2018-04-25T03:42:15.232Z,32
2018-04-25T03:43:17.623Z,28
2018-04-25T03:44:19.999Z,36
2018-04-25T03:45:22.391Z,40
2018-04-25T03:46:25.612Z,40
2018-04-25T03:47:28.283Z,48
2018-04-25T03:48:30.668Z,52
2018-04-25T03:49:33.054Z,36
2018-04-25T03:50:35.419Z,44
2018-04-25T03:51:38.087Z,40
2018-04-25T03:52:40.471Z,36
2018-04-25T03:53:42.841Z,32
2018-04-25T03:54:45.228Z,28
2018-04-25T03:55:47.603Z,52
2018-04-25T03:56:49.985Z,88
2018-04-25T03:57:52.674Z,96
2018-04-25T03:58:55.057Z,72
2018-04-25T03:59:57.434Z,76
2018-04-25T04:00:59.817Z,108
2018-04-25T04:02:02.191Z,136
2018-04-25T04:03:04.576Z,92
2018-04-25T04:04:06.950Z,76
2018-04-25T04:05:09.323Z,96
2018-04-25T04:06:11.703Z,140
2018-04-25T04:07:14.073Z,172
2018-04-25T04:08:16.454Z,240
2018-04-25T04:09:18.836Z,272
2018-04-25T04:10:21.509Z,360
2018-04-25T04:11:24.165Z,228
2018-04-25T04:12:26.545Z,148
2018-04-25T04:13:28.928Z,148
2018-04-25T04:14:31.322Z,184
2018-04-25T04:15:33.693Z,224
2018-04-25T04:16:36.465Z,196
2018-04-25T04:17:38.846Z,196
2018-04-25T04:18:41.240Z,168
2018-04-25T04:19:43.625Z,208
2018-04-25T04:20:46.388Z,184
2018-04-25T04:21:48.771Z,208
2018-04-25T04:22:51.736Z,240
2018-04-25T04:23:54.114Z,308
2018-04-25T04:24:56.816Z,384
2018-04-25T04:26:00.044Z,432
2018-04-25T04:27:02.431Z,348
2018-04-25T04:28:04.804Z,252
2018-04-25T04:29:07.190Z,224
2018-04-25T04:30:09.567Z,232
2018-04-25T04:31:11.951Z,272
2018-04-25T04:32:14.337Z,300
2018-04-25T04:33:16.711Z,320
2018-04-25T04:34:19.094Z,284
2018-04-25T04:35:21.482Z,288
2018-04-25T04:36:24.145Z,308
2018-04-25T04:37:26.527Z,336
2018-04-25T04:38:29.211Z,408
2018-04-25T04:39:31.874Z,592
2018-04-25T04:40:34.259Z,708
2018-04-25T04:41:37.200Z,560
2018-04-25T04:42:39.595Z,520
2018-04-25T04:43:41.967Z,484
2018-04-25T04:44:44.345Z,492
2018-04-25T04:45:46.731Z,612
2018-04-25T04:46:49.121Z,604
2018-04-25T04:47:51.497Z,600
2018-04-25T04:48:53.892Z,620
2018-04-25T04:49:56.261Z,492
2018-04-25T04:50:58.953Z,400
2018-04-25T04:52:01.720Z,592
2018-04-25T04:53:04.103Z,868
2018-04-25T04:54:06.493Z,1048
2018-04-25T04:55:08.881Z,1060
2018-04-25T04:56:11.262Z,1140
2018-04-25T04:57:13.649Z,1052
2018-04-25T04:58:16.316Z,956
2018-04-25T04:59:19.069Z,876
2018-04-25T05:00:21.461Z,776
2018-04-25T05:01:23.823Z,928
2018-04-25T05:02:26.206Z,1292
2018-04-25T05:03:28.871Z,1364
2018-04-25T05:04:31.247Z,1412
2018-04-25T05:05:33.635Z,1676
2018-04-25T05:06:36.026Z,1736
2018-04-25T05:07:38.403Z,1448
2018-04-25T05:08:41.185Z,1648
2018-04-25T05:09:44.401Z,1836
2018-04-25T05:10:46.793Z,1796
2018-04-25T05:11:49.564Z,1792
2018-04-25T05:12:51.946Z,2052
2018-04-25T05:13:54.614Z,2368
2018-04-25T05:14:56.990Z,2464
2018-04-25T05:15:59.368Z,2672
2018-04-25T05:17:02.036Z,2768
2018-04-25T05:18:04.690Z,2260
2018-04-25T05:19:07.071Z,1668
2018-04-25T05:20:09.448Z,1288
2018-04-25T05:21:11.830Z,1492
2018-04-25T05:22:14.217Z,1868
2018-04-25T05:23:16.594Z,1424
2018-04-25T05:24:19.686Z,1332
2018-04-25T05:25:22.444Z,1280
2018-04-25T05:26:24.813Z,1412
2018-04-25T05:27:27.199Z,1468
2018-04-25T05:28:29.577Z,1696
2018-04-25T05:29:31.953Z,2532
2018-04-25T05:30:34.714Z,4796
2018-04-25T05:31:37.103Z,5860
2018-04-25T05:32:39.755Z,6460
2018-04-25T05:33:42.139Z,5860
2018-04-25T05:34:44.522Z,5692
2018-04-25T05:35:47.290Z,6092
2018-04-25T05:36:49.678Z,6836
2018-04-25T05:37:52.339Z,7260
2018-04-25T05:38:54.715Z,7268
2018-04-25T05:39:57.107Z,7080
2018-04-25T05:40:59.868Z,7032
2018-04-25T05:42:02.300Z,6932
2018-04-25T05:43:04.683Z,6568
2018-04-25T05:44:07.064Z,5948
2018-04-25T05:45:09.730Z,4920
2018-04-25T05:46:12.109Z,4596
2018-04-25T05:47:14.499Z,4780
2018-04-25T05:48:16.889Z,4980
2018-04-25T05:49:19.256Z,5304
2018-04-25T05:50:21.638Z,5640
2018-04-25T05:51:24.630Z,5464
2018-04-25T05:52:27.294Z,4948
2018-04-25T05:53:29.674Z,5380
2018-04-25T05:54:32.065Z,5352
2018-04-25T05:55:34.435Z,4492
2018-04-25T05:56:36.836Z,3900
2018-04-25T05:57:39.216Z,3932
2018-04-25T05:58:41.991Z,4428
2018-04-25T05:59:44.371Z,5020
2018-04-25T06:00:46.749Z,5804
2018-04-25T06:01:50.085Z,6880
2018-04-25T06:02:52.774Z,6844
2018-04-25T06:03:55.410Z,6736
2018-04-25T06:04:57.803Z,7408
2018-04-25T06:06:00.193Z,8188
2018-04-25T06:07:02.629Z,9260
2018-04-25T06:08:05.434Z,10244
2018-04-25T06:09:07.758Z,9932
2018-04-25T06:10:10.145Z,9228
2018-04-25T06:11:12.806Z,9028
2018-04-25T06:12:15.588Z,9572
2018-04-25T06:13:17.976Z,9152
2018-04-25T06:14:20.355Z,7860
2018-04-25T06:15:22.747Z,7912
2018-04-25T06:16:25.128Z,7780
2018-04-25T06:17:27.513Z,7708
2018-04-25T06:18:29.887Z,8172
2018-04-25T06:19:32.570Z,8220
2018-04-25T06:20:34.942Z,8404
2018-04-25T06:21:37.336Z,9048
2018-04-25T06:22:39.716Z,8016
2018-04-25T06:23:42.108Z,7716
2018-04-25T06:24:44.487Z,6872
2018-04-25T06:25:46.876Z,7800
2018-04-25T06:26:49.544Z,9916
2018-04-25T06:27:52.227Z,14932
2018-04-25T06:28:54.590Z,16032
2018-04-25T06:29:56.981Z,17804
2018-04-25T06:30:59.649Z,14960
2018-04-25T06:32:02.034Z,11832
2018-04-25T06:33:04.693Z,9916
2018-04-25T06:34:07.080Z,9928
2018-04-25T06:35:09.740Z,11192
2018-04-25T06:36:12.402Z,13776
2018-04-25T06:37:15.092Z,15620
2018-04-25T06:38:17.482Z,12496
2018-04-25T06:39:19.872Z,9272
2018-04-25T06:40:22.235Z,12712
2018-04-25T06:41:24.630Z,16352
2018-04-25T06:42:27.014Z,17068
2018-04-25T06:43:29.405Z,19552
2018-04-25T06:44:31.796Z,21344
2018-04-25T06:45:34.173Z,21920
2018-04-25T06:46:36.847Z,15376
2018-04-25T06:47:39.235Z,13952
2018-04-25T06:48:41.605Z,14632
2018-04-25T06:49:43.997Z,17728
2018-04-25T06:50:46.444Z,18228
2018-04-25T06:51:48.765Z,19328
2018-04-25T06:52:51.154Z,20000
2018-04-25T06:53:53.525Z,19072
2018-04-25T06:54:55.907Z,19392
2018-04-25T06:55:58.285Z,17568
2018-04-25T06:57:00.676Z,15692
2018-04-25T06:58:03.066Z,14392
2018-04-25T06:59:05.462Z,13816
2018-04-25T07:00:08.124Z,17680
2018-04-25T07:01:10.525Z,15856
2018-04-25T07:02:13.193Z,14192
2018-04-25T07:03:15.583Z,12260
2018-04-25T07:04:18.358Z,11804
2018-04-25T07:05:20.740Z,13584
2018-04-25T07:06:23.415Z,14696
2018-04-25T07:07:26.079Z,15988
2018-04-25T07:08:28.475Z,12156
2018-04-25T07:09:30.858Z,15396
2018-04-25T07:10:33.251Z,19648
2018-04-25T07:11:35.929Z,21024
2018-04-25T07:12:38.305Z,22976
2018-04-25T07:13:41.359Z,24480
2018-04-25T07:14:43.741Z,21024
2018-04-25T07:15:46.143Z,21344
2018-04-25T07:16:48.531Z,19296
2018-04-25T07:17:50.911Z,20256
2018-04-25T07:18:53.297Z,26528
2018-04-25T07:19:55.696Z,24992
2018-04-25T07:20:58.072Z,26560
2018-04-25T07:22:00.464Z,22496
2018-04-25T07:23:02.859Z,19872
2018-04-25T07:24:05.243Z,16352
2018-04-25T07:25:07.632Z,28800
2018-04-25T07:26:10.411Z,29120
2018-04-25T07:27:12.794Z,23040
2018-04-25T07:28:15.194Z,16652
2018-04-25T07:29:17.573Z,13432
2018-04-25T07:30:19.967Z,11888
2018-04-25T07:31:22.345Z,13704
2018-04-25T07:32:24.735Z,17804
2018-04-25T07:33:27.116Z,19488
2018-04-25T07:34:30.185Z,18388
2018-04-25T07:35:32.575Z,10828
2018-04-25T07:36:34.957Z,11340
2018-04-25T07:37:37.333Z,10204
2018-04-25T07:38:39.738Z,5172
2018-04-25T07:39:42.116Z,9832
2018-04-25T07:40:44.783Z,7612
2018-04-25T07:41:47.230Z,9436
2018-04-25T07:42:50.408Z,10972
2018-04-25T07:43:52.791Z,12840
2018-04-25T07:44:55.190Z,11156
2018-04-25T07:45:57.851Z,8856
2018-04-25T07:47:00.241Z,9724
2018-04-25T07:48:02.637Z,7556
2018-04-25T07:49:05.020Z,7532
2018-04-25T07:50:07.408Z,8844
2018-04-25T07:51:09.791Z,10580
2018-04-25T07:52:12.240Z,8812
2018-04-25T07:53:14.578Z,7788
2018-04-25T07:54:16.961Z,17752
2018-04-25T07:55:19.633Z,24512
2018-04-25T07:56:22.026Z,28448
2018-04-25T07:57:24.418Z,22080
2018-04-25T07:58:27.383Z,24768
2018-04-25T07:59:30.066Z,23008
2018-04-25T08:00:32.740Z,19840
2018-04-25T08:01:35.126Z,21376
2018-04-25T08:02:37.807Z,22528
2018-04-25T08:03:40.569Z,17520
2018-04-25T08:04:42.967Z,24704
2018-04-25T08:05:45.354Z,22656
2018-04-25T08:06:47.737Z,40384
2018-04-25T08:07:50.128Z,32640
2018-04-25T08:08:52.899Z,70240
2018-04-25T08:09:55.289Z,27104
2018-04-25T08:10:57.675Z,24000
2018-04-25T08:12:00.448Z,47360
2018-04-25T08:13:03.117Z,29504
2018-04-25T08:14:05.503Z,34944
2018-04-25T08:15:07.895Z,47392
2018-04-25T08:16:10.664Z,20480
2018-04-25T08:17:13.057Z,15420
2018-04-25T08:18:15.447Z,12080
2018-04-25T08:19:17.831Z,14864
2018-04-25T08:20:20.609Z,13600
2018-04-25T08:21:22.994Z,17140
2018-04-25T08:22:25.386Z,18568
2018-04-25T08:23:28.073Z,15396
2018-04-25T08:24:30.468Z,13464
2018-04-25T08:25:33.127Z,12672
2018-04-25T08:26:35.521Z,8188
2018-04-25T08:27:38.203Z,5396
2018-04-25T08:28:41.016Z,5440
2018-04-25T08:29:43.689Z,5580
2018-04-25T08:30:46.073Z,4640
2018-04-25T08:31:48.464Z,4284
2018-04-25T08:32:50.854Z,6224
2018-04-25T08:33:53.251Z,5116
2018-04-25T08:34:55.646Z,4592
2018-04-25T08:35:58.022Z,3876
2018-04-25T08:37:00.694Z,3508
2018-04-25T08:38:03.086Z,2652
2018-04-25T08:39:05.470Z,3508
2018-04-25T08:40:08.135Z,6380
2018-04-25T08:41:10.517Z,10148
2018-04-25T08:42:12.901Z,12744
2018-04-25T08:43:15.680Z,14872
2018-04-25T08:44:18.065Z,20320
2018-04-25T08:45:20.447Z,125504
2018-04-25T08:46:23.115Z,41984
2018-04-25T08:47:25.785Z,26496
2018-04-25T08:48:28.219Z,14636
2018-04-25T08:49:30.563Z,11340
2018-04-25T08:50:32.939Z,44672
2018-04-25T08:51:35.331Z,79040
2018-04-25T08:52:37.760Z,69440
2018-04-25T08:53:40.128Z,107296
2018-04-25T08:54:42.525Z,32864
2018-04-25T08:55:44.921Z,67616
2018-04-25T08:56:47.600Z,49152
2018-04-25T08:57:49.998Z,63232
2018-04-25T08:58:52.677Z,57664
2018-04-25T08:59:55.047Z,32320
2018-04-25T09:00:57.824Z,52544
2018-04-25T09:02:00.215Z,60832
2018-04-25T09:03:02.986Z,34816
2018-04-25T09:04:05.371Z,21792
2018-04-25T09:05:08.338Z,18200
2018-04-25T09:06:10.730Z,24128
2018-04-25T09:07:13.113Z,121504
2018-04-25T09:08:16.089Z,30400
2018-04-25T09:09:18.857Z,37024
2018-04-25T09:10:21.530Z,23104
2018-04-25T09:11:23.920Z,20608
2018-04-25T09:12:26.306Z,18096
2018-04-25T09:13:28.691Z,16108
2018-04-25T09:14:31.084Z,13792
2018-04-25T09:15:33.539Z,16212
2018-04-25T09:16:36.315Z,14928
2018-04-25T09:17:38.697Z,19328
2018-04-25T09:18:41.085Z,18448
2018-04-25T09:19:43.477Z,16628
2018-04-25T09:20:45.869Z,17336
2018-04-25T09:21:48.535Z,17488
2018-04-25T09:22:50.924Z,15320
2018-04-25T09:23:53.308Z,20960
2018-04-25T09:24:56.353Z,21248
2018-04-25T09:25:58.761Z,18296
2018-04-25T09:27:01.134Z,19552
2018-04-25T09:28:04.101Z,20992
2018-04-25T09:29:06.791Z,16720
2018-04-25T09:31:44.827Z,34432
2018-04-25T09:32:47.877Z,49728
2018-04-25T09:33:50.272Z,125024
2018-04-25T09:34:52.938Z,24096
2018-04-25T09:35:55.323Z,23840
2018-04-25T09:36:57.709Z,21408
2018-04-25T09:38:00.104Z,20672
2018-04-25T09:39:02.766Z,20800
2018-04-25T09:40:05.442Z,23072
2018-04-25T09:41:07.823Z,19072
2018-04-25T09:42:10.201Z,21984
2018-04-25T09:43:12.592Z,28416
2018-04-25T09:44:15.283Z,38048
2018-04-25T09:45:18.061Z,143680
2018-04-25T09:46:20.730Z,137056
2018-04-25T09:47:23.111Z,137760
2018-04-25T09:48:25.506Z,142176
2018-04-25T09:49:27.904Z,134688
2018-04-25T09:50:30.279Z,134208
2018-04-25T09:51:32.672Z,106208
2018-04-25T09:52:35.065Z,138272
2018-04-25T09:53:37.446Z,91008
2018-04-25T09:54:39.843Z,37248
2018-04-25T09:55:42.620Z,37088
2018-04-25T09:56:44.994Z,37120
2018-04-25T09:57:47.449Z,41888
2018-04-25T09:58:49.779Z,26400
2018-04-25T09:59:52.169Z,30400
2018-04-25T10:00:54.557Z,19968
2018-04-25T10:01:56.947Z,23840
2018-04-25T10:02:59.336Z,24224
2018-04-25T10:04:01.821Z,16860
2018-04-25T10:05:04.900Z,15796
2018-04-25T10:06:07.577Z,15032
2018-04-25T10:07:09.961Z,18496
2018-04-25T10:08:12.354Z,24128
2018-04-25T10:09:14.737Z,47648
2018-04-25T10:10:17.435Z,30016
2018-04-25T10:11:19.825Z,21952
2018-04-25T10:12:22.211Z,26848
2018-04-25T10:13:24.598Z,26240
2018-04-25T10:14:26.995Z,25504
2018-04-25T10:15:29.382Z,20992
2018-04-25T10:16:32.159Z,24960
2018-04-25T10:17:34.547Z,27136
2018-04-25T10:18:36.939Z,18848
2018-04-25T10:19:39.327Z,30528
2018-04-25T10:20:41.720Z,16480
2018-04-25T10:21:44.100Z,15172
2018-04-25T10:22:46.502Z,17296
2018-04-25T10:23:48.913Z,30080
2018-04-25T10:24:51.735Z,52672
2018-04-25T10:25:54.125Z,21120
2018-04-25T10:26:56.518Z,11292
2018-04-25T10:27:58.904Z,14464
2018-04-25T10:29:01.300Z,28832
2018-04-25T10:30:03.682Z,102720
2018-04-25T10:31:06.083Z,151744
2018-04-25T10:32:08.557Z,31872
2018-04-25T10:33:10.877Z,30112
2018-04-25T10:34:13.544Z,28544
2018-04-25T10:35:15.923Z,15332
2018-04-25T10:36:18.900Z,12476
2018-04-25T10:37:21.576Z,10896
2018-04-25T10:38:24.005Z,11692
2018-04-25T10:39:26.402Z,15556
2018-04-25T10:40:28.875Z,14168
2018-04-25T10:41:31.543Z,13732
2018-04-25T10:42:33.944Z,14448
2018-04-25T10:43:36.331Z,20320
2018-04-25T10:44:39.101Z,13972
2018-04-25T10:45:41.487Z,18100
2018-04-25T10:46:43.872Z,23296
2018-04-25T10:47:46.255Z,39008
2018-04-25T10:48:48.652Z,145696
2018-04-25T10:49:51.420Z,44096
2018-04-25T10:50:53.814Z,53600
2018-04-25T10:51:56.202Z,111616
2018-04-25T10:52:58.588Z,27488
2018-04-25T10:54:01.643Z,20768
2018-04-25T10:55:04.414Z,23200
2018-04-25T10:56:07.081Z,23584
2018-04-25T10:57:09.482Z,25120
2018-04-25T10:58:12.189Z,24544
2018-04-25T10:59:14.588Z,22688
2018-04-25T11:00:16.988Z,26336
2018-04-25T11:01:19.389Z,37856
2018-04-25T11:02:21.827Z,42464
2018-04-25T11:03:24.612Z,34176
2018-04-25T11:04:27.008Z,29920
2018-04-25T11:05:29.687Z,26560
2018-04-25T11:06:32.070Z,24448
2018-04-25T11:07:34.744Z,25472
2018-04-25T11:08:37.427Z,22656
2018-04-25T11:09:39.825Z,30112
2018-04-25T11:10:42.594Z,34176
2018-04-25T11:11:44.985Z,16576
2018-04-25T11:12:47.656Z,14980
2018-04-25T11:13:50.048Z,22176
2018-04-25T11:14:52.427Z,62784
2018-04-25T11:15:54.815Z,37184
2018-04-25T11:16:57.201Z,40608
2018-04-25T11:17:59.590Z,33152
2018-04-25T11:19:01.975Z,34496
2018-04-25T11:20:04.789Z,34656
2018-04-25T11:21:07.826Z,36896
2018-04-25T11:22:10.218Z,44992
2018-04-25T11:23:12.597Z,49568
2018-04-25T11:24:14.984Z,168576
2018-04-25T11:25:17.371Z,40032
2018-04-25T11:26:20.036Z,33792
2018-04-25T11:27:22.420Z,18976
2018-04-25T11:28:24.811Z,19872
2018-04-25T11:29:27.183Z,20032
2018-04-25T11:30:29.594Z,17244
2018-04-25T11:31:32.260Z,18976
2018-04-25T11:32:34.643Z,23200
2018-04-25T11:33:37.703Z,24480
2018-04-25T11:34:40.364Z,19488
2018-04-25T11:35:43.028Z,16852
2018-04-25T11:36:45.414Z,12528
2018-04-25T11:37:48.191Z,15884
2018-04-25T11:38:50.584Z,10072
2018-04-25T11:39:52.954Z,9216
2018-04-25T11:40:55.348Z,9660
2018-04-25T11:41:57.732Z,10504
2018-04-25T11:43:00.154Z,13964
2018-04-25T11:44:02.844Z,12632
2018-04-25T11:45:05.228Z,10768
2018-04-25T11:46:07.611Z,9952
2018-04-25T11:47:10.114Z,9436
2018-04-25T11:48:12.809Z,9892
2018-04-25T11:49:15.190Z,10012
2018-04-25T11:50:17.578Z,9064
2018-04-25T11:51:19.961Z,9812
2018-04-25T11:52:22.349Z,11268
2018-04-25T11:53:24.740Z,9372
2018-04-25T11:54:27.396Z,10716
2018-04-25T11:55:29.786Z,8944
2018-04-25T11:56:32.170Z,5612
2018-04-25T11:57:34.573Z,5372
2018-04-25T11:58:36.948Z,4264
2018-04-25T11:59:39.411Z,4300
2018-04-25T12:00:41.723Z,4032
2018-04-25T12:01:44.124Z,4932
2018-04-25T12:02:46.521Z,6372
2018-04-25T12:03:48.880Z,6548
2018-04-25T12:04:51.267Z,5280
2018-04-25T12:05:53.661Z,4676
2018-04-25T12:06:56.043Z,5348
2018-04-25T12:07:58.814Z,6608
2018-04-25T12:09:01.203Z,5348
2018-04-25T12:10:03.972Z,4948
2018-04-25T12:11:06.640Z,5672
2018-04-25T12:12:09.046Z,4748
2018-04-25T12:13:11.506Z,4256
2018-04-25T12:14:14.508Z,5164
2018-04-25T12:15:16.902Z,5692
2018-04-25T12:16:19.290Z,5480
2018-04-25T12:17:21.961Z,4536
2018-04-25T12:18:24.621Z,4484
2018-04-25T12:19:27.388Z,5276
2018-04-25T12:20:29.804Z,6148
2018-04-25T12:21:32.750Z,6220
2018-04-25T12:22:35.168Z,6712
2018-04-25T12:23:37.595Z,6904
2018-04-25T12:24:40.458Z,6580
2018-04-25T12:25:42.843Z,6180
2018-04-25T12:26:46.062Z,5764
2018-04-25T12:27:48.455Z,5960
2018-04-25T12:28:51.422Z,7108
2018-04-25T12:29:54.142Z,8272
2018-04-25T12:30:57.365Z,8756
2018-04-25T12:31:59.776Z,9004
2018-04-25T12:33:02.192Z,9920
2018-04-25T12:34:04.608Z,12180
2018-04-25T12:35:07.940Z,14540
2018-04-25T12:36:10.457Z,17228
2018-04-25T12:37:12.877Z,21216
2018-04-25T12:38:15.681Z,38048
2018-04-25T12:39:18.067Z,45088
2018-04-25T12:40:21.000Z,48416
2018-04-25T12:41:23.467Z,42848
2018-04-25T12:42:26.435Z,27584
2018-04-25T12:43:28.847Z,34272
2018-04-25T12:44:31.603Z,31104
2018-04-25T12:45:33.976Z,37088
2018-04-25T12:46:37.043Z,24320
2018-04-25T12:47:39.431Z,18292
2018-04-25T12:48:42.741Z,20704
2018-04-25T12:49:45.548Z,23168
2018-04-25T12:50:48.028Z,18976
2018-04-25T12:51:50.897Z,22880
2018-04-25T12:52:54.690Z,17532
2018-04-25T12:53:58.073Z,19488
2018-04-25T12:55:00.991Z,11704
2018-04-25T12:56:03.873Z,17528
2018-04-25T12:57:06.673Z,14224
2018-04-25T12:58:09.224Z,14832
2018-04-25T12:59:11.737Z,15920
2018-04-25T13:00:14.984Z,17516
2018-04-25T13:01:18.027Z,21856
2018-04-25T13:02:20.414Z,21408
2018-04-25T13:03:24.647Z,17208
2018-04-25T13:04:28.639Z,17540
2018-04-25T13:05:31.018Z,20864
2018-04-25T13:06:33.935Z,20384
2018-04-25T13:07:36.330Z,18340
2018-04-25T13:08:39.364Z,18752
2018-04-25T13:09:41.831Z,24320
2018-04-25T13:10:44.272Z,27168
2018-04-25T13:11:46.655Z,32128
2018-04-25T13:12:49.044Z,40256
2018-04-25T13:13:51.433Z,46464
2018-04-25T13:14:53.820Z,28800
2018-04-25T13:15:56.487Z,15496
2018-04-25T13:16:58.878Z,10484
2018-04-25T13:18:01.647Z,8264
2018-04-25T13:19:04.312Z,7964
2018-04-25T13:20:06.706Z,10248
2018-04-25T13:21:09.088Z,11768
2018-04-25T13:22:11.456Z,9328
2018-04-25T13:23:13.842Z,7684
2018-04-25T13:24:16.224Z,8200
2018-04-25T13:25:19.183Z,8024
2018-04-25T13:26:21.874Z,6444
2018-04-25T13:27:24.249Z,7672
2018-04-25T13:28:26.629Z,6520
2018-04-25T13:29:29.029Z,7192
2018-04-25T13:30:31.407Z,6056
2018-04-25T13:31:33.795Z,5580
2018-04-25T13:32:36.467Z,5936
2018-04-25T13:33:38.866Z,5500
2018-04-25T13:34:41.511Z,5432
2018-04-25T13:35:43.923Z,5224
2018-04-25T13:36:46.300Z,5312
2018-04-25T13:37:49.034Z,4988
2018-04-25T13:38:51.352Z,5044
2018-04-25T13:39:53.795Z,5360
2018-04-25T13:40:56.461Z,5428
2018-04-25T13:41:58.851Z,5484
2018-04-25T13:43:01.608Z,5092
2018-04-25T13:44:03.996Z,5132
2018-04-25T13:45:06.383Z,4732
2018-04-25T13:46:08.755Z,4372
2018-04-25T13:47:11.415Z,4352
2018-04-25T13:48:13.801Z,4220
2018-04-25T13:49:16.183Z,4472
2018-04-25T13:50:18.564Z,5116
2018-04-25T13:51:20.943Z,5864
2018-04-25T13:52:23.357Z,6424
2018-04-25T13:53:26.035Z,7052
2018-04-25T13:54:28.714Z,7140
2018-04-25T13:55:31.103Z,7020
2018-04-25T13:56:33.496Z,7364
2018-04-25T13:57:35.884Z,8504
2018-04-25T13:58:38.282Z,9024
2018-04-25T13:59:40.669Z,9104
2018-04-25T14:00:43.366Z,9428
2018-04-25T14:01:46.040Z,9828
2018-04-25T14:02:48.429Z,10532
2018-04-25T14:03:50.819Z,11416
2018-04-25T14:04:53.195Z,11600
2018-04-25T14:05:55.581Z,11944
2018-04-25T14:06:57.962Z,12724